sensor_id;sensor_type;location;lat;lon;timestamp;pressure;altitude;pressure_sealevel;temperature;humidity
61674;BME280;47573;43.832;5.974;2022-08-30T00:02:29;95485.38;;;29.80;55.15
61674;BME280;47573;43.832;5.974;2022-08-30T00:07:29;95489.50;;;29.78;55.10
61674;BME280;47573;43.832;5.974;2022-08-30T00:12:30;95487.03;;;29.71;55.63
61674;BME280;47573;43.832;5.974;2022-08-30T00:17:32;95463.38;;;29.75;54.99
61674;BME280;47573;43.832;5.974;2022-08-30T00:22:33;95466.66;;;29.77;55.51
61674;BME280;47573;43.832;5.974;2022-08-30T00:27:33;95465.03;;;29.76;54.92
61674;BME280;47573;43.832;5.974;2022-08-30T00:32:35;95448.97;;;29.93;54.45
61674;BME280;47573;43.832;5.974;2022-08-30T00:37:36;95439.09;;;29.87;54.90
61674;BME280;47573;43.832;5.974;2022-08-30T00:42:37;95427.03;;;29.83;54.75
61674;BME280;47573;43.832;5.974;2022-08-30T00:47:39;95394.72;;;29.94;54.18
61674;BME280;47573;43.832;5.974;2022-08-30T00:52:43;95394.28;;;29.77;54.57
61674;BME280;47573;43.832;5.974;2022-08-30T00:57:45;95381.25;;;29.92;53.71
61674;BME280;47573;43.832;5.974;2022-08-30T01:02:47;95395.06;;;29.87;54.07
61674;BME280;47573;43.832;5.974;2022-08-30T01:07:48;95390.09;;;29.89;54.02
61674;BME280;47573;43.832;5.974;2022-08-30T01:12:49;95374.97;;;29.87;53.89
61674;BME280;47573;43.832;5.974;2022-08-30T01:17:51;95371.06;;;29.93;53.64
61674;BME280;47573;43.832;5.974;2022-08-30T01:23:03;95366.38;;;29.93;53.60
61674;BME280;47573;43.832;5.974;2022-08-30T01:28:07;95362.03;;;29.82;53.58
61674;BME280;47573;43.832;5.974;2022-08-30T01:33:09;95351.56;;;29.84;53.23
61674;BME280;47573;43.832;5.974;2022-08-30T01:38:12;95335.09;;;29.79;53.21
61674;BME280;47573;43.832;5.974;2022-08-30T01:43:14;95337.50;;;29.86;52.81
61674;BME280;47573;43.832;5.974;2022-08-30T01:48:15;95336.72;;;29.85;52.66
61674;BME280;47573;43.832;5.974;2022-08-30T01:53:16;95345.53;;;29.82;52.55
61674;BME280;47573;43.832;5.974;2022-08-30T01:58:17;95353.16;;;29.95;52.16
61674;BME280;47573;43.832;5.974;2022-08-30T02:03:17;95354.78;;;29.96;52.05
61674;BME280;47573;43.832;5.974;2022-08-30T02:08:19;95349.88;;;29.93;52.19
61674;BME280;47573;43.832;5.974;2022-08-30T02:13:20;95365.25;;;29.94;52.00
61674;BME280;47573;43.832;5.974;2022-08-30T02:18:22;95367.22;;;29.89;51.97
61674;BME280;47573;43.832;5.974;2022-08-30T02:23:24;95399.72;;;29.87;51.99
61674;BME280;47573;43.832;5.974;2022-08-30T02:28:24;95404.09;;;29.93;52.01
61674;BME280;47573;43.832;5.974;2022-08-30T02:33:25;95390.03;;;29.94;52.07
61674;BME280;47573;43.832;5.974;2022-08-30T02:38:28;95373.53;;;29.94;51.73
61674;BME280;47573;43.832;5.974;2022-08-30T02:43:29;95380.75;;;29.85;51.98
61674;BME280;47573;43.832;5.974;2022-08-30T02:48:29;95372.69;;;29.94;51.81
61674;BME280;47573;43.832;5.974;2022-08-30T02:53:31;95368.06;;;29.89;51.93
61674;BME280;47573;43.832;5.974;2022-08-30T02:58:32;95375.25;;;29.85;51.92
61674;BME280;47573;43.832;5.974;2022-08-30T03:03:33;95360.94;;;29.83;52.17
61674;BME280;47573;43.832;5.974;2022-08-30T03:08:35;95354.84;;;29.86;51.94
61674;BME280;47573;43.832;5.974;2022-08-30T03:13:35;95343.31;;;29.84;51.74
61674;BME280;47573;43.832;5.974;2022-08-30T03:18:36;95341.16;;;29.71;51.92
61674;BME280;47573;43.832;5.974;2022-08-30T03:23:39;95334.59;;;29.67;52.27
61674;BME280;47573;43.832;5.974;2022-08-30T03:28:41;95337.59;;;29.76;52.09
61674;BME280;47573;43.832;5.974;2022-08-30T03:33:42;95339.53;;;29.70;52.36
61674;BME280;47573;43.832;5.974;2022-08-30T03:38:43;95337.28;;;29.82;51.95
61674;BME280;47573;43.832;5.974;2022-08-30T03:43:44;95341.16;;;29.81;51.82
61674;BME280;47573;43.832;5.974;2022-08-30T03:48:44;95341.72;;;29.78;51.99
61674;BME280;47573;43.832;5.974;2022-08-30T03:53:46;95361.53;;;29.70;52.18
61674;BME280;47573;43.832;5.974;2022-08-30T03:58:47;95394.03;;;29.73;51.89
61674;BME280;47573;43.832;5.974;2022-08-30T04:03:47;95429.81;;;29.73;52.18
61674;BME280;47573;43.832;5.974;2022-08-30T04:08:49;95439.72;;;29.74;51.80
61674;BME280;47573;43.832;5.974;2022-08-30T04:13:50;95435.31;;;29.73;51.84
61674;BME280;47573;43.832;5.974;2022-08-30T04:18:50;95403.34;;;29.82;51.88
61674;BME280;47573;43.832;5.974;2022-08-30T04:23:52;95372.00;;;29.73;52.02
61674;BME280;47573;43.832;5.974;2022-08-30T04:28:53;95358.75;;;29.85;51.74
61674;BME280;47573;43.832;5.974;2022-08-30T04:33:54;95389.59;;;29.72;52.18
61674;BME280;47573;43.832;5.974;2022-08-30T04:38:55;95423.72;;;29.81;52.21
61674;BME280;47573;43.832;5.974;2022-08-30T04:43:56;95415.50;;;29.76;51.97
61674;BME280;47573;43.832;5.974;2022-08-30T04:48:56;95412.19;;;29.74;52.26
61674;BME280;47573;43.832;5.974;2022-08-30T04:53:58;95418.53;;;29.75;52.53
61674;BME280;47573;43.832;5.974;2022-08-30T04:58:59;95422.09;;;29.70;52.14
61674;BME280;47573;43.832;5.974;2022-08-30T05:04:00;95423.22;;;29.74;52.29
61674;BME280;47573;43.832;5.974;2022-08-30T05:09:02;95436.94;;;29.69;52.67
61674;BME280;47573;43.832;5.974;2022-08-30T05:14:03;95463.09;;;29.72;52.35
61674;BME280;47573;43.832;5.974;2022-08-30T05:19:03;95476.84;;;29.72;52.08
61674;BME280;47573;43.832;5.974;2022-08-30T05:24:05;95479.34;;;29.78;52.29
61674;BME280;47573;43.832;5.974;2022-08-30T05:29:06;95478.78;;;29.76;52.07
61674;BME280;47573;43.832;5.974;2022-08-30T05:34:06;95485.38;;;29.75;52.16
61674;BME280;47573;43.832;5.974;2022-08-30T05:39:09;95485.91;;;29.82;51.76
61674;BME280;47573;43.832;5.974;2022-08-30T05:44:10;95482.91;;;27.82;58.03
61674;BME280;47573;43.832;5.974;2022-08-30T05:49:10;95474.88;;;27.56;60.02
61674;BME280;47573;43.832;5.974;2022-08-30T05:54:14;95469.94;;;27.58;59.47
61674;BME280;47573;43.832;5.974;2022-08-30T05:59:14;95474.63;;;27.16;61.14
61674;BME280;47573;43.832;5.974;2022-08-30T06:04:15;95461.88;;;27.36;60.90
61674;BME280;47573;43.832;5.974;2022-08-30T06:09:17;95465.63;;;27.20;61.78
61674;BME280;47573;43.832;5.974;2022-08-30T06:14:18;95470.06;;;27.31;60.55
61674;BME280;47573;43.832;5.974;2022-08-30T06:19:19;95472.50;;;26.76;64.30
61674;BME280;47573;43.832;5.974;2022-08-30T06:24:21;95482.47;;;27.39;60.18
61674;BME280;47573;43.832;5.974;2022-08-30T06:29:21;95479.09;;;27.27;61.31
61674;BME280;47573;43.832;5.974;2022-08-30T06:34:22;95481.44;;;27.50;59.68
61674;BME280;47573;43.832;5.974;2022-08-30T06:39:24;95496.66;;;27.88;56.67
61674;BME280;47573;43.832;5.974;2022-08-30T06:44:24;95502.44;;;27.91;54.92
61674;BME280;47573;43.832;5.974;2022-08-30T06:49:25;95510.66;;;27.86;54.96
61674;BME280;47573;43.832;5.974;2022-08-30T06:54:27;95520.38;;;27.52;56.16
61674;BME280;47573;43.832;5.974;2022-08-30T06:59:27;95514.38;;;27.55;56.24
61674;BME280;47573;43.832;5.974;2022-08-30T07:04:28;95515.88;;;27.93;54.89
61674;BME280;47573;43.832;5.974;2022-08-30T07:09:30;95520.22;;;27.78;54.98
61674;BME280;47573;43.832;5.974;2022-08-30T07:14:30;95515.59;;;27.89;55.70
61674;BME280;47573;43.832;5.974;2022-08-30T07:19:31;95519.41;;;27.78;54.67
61674;BME280;47573;43.832;5.974;2022-08-30T07:24:33;95522.13;;;27.73;55.18
61674;BME280;47573;43.832;5.974;2022-08-30T07:29:33;95520.38;;;28.09;54.83
61674;BME280;47573;43.832;5.974;2022-08-30T07:34:34;95536.09;;;28.43;54.00
61674;BME280;47573;43.832;5.974;2022-08-30T07:39:35;95528.72;;;28.59;53.72
61674;BME280;47573;43.832;5.974;2022-08-30T07:44:36;95534.50;;;28.78;53.42
61674;BME280;47573;43.832;5.974;2022-08-30T07:49:37;95538.91;;;28.84;53.08
61674;BME280;47573;43.832;5.974;2022-08-30T07:54:39;95543.84;;;28.92;53.19
61674;BME280;47573;43.832;5.974;2022-08-30T07:59:39;95548.78;;;28.95;52.96
61674;BME280;47573;43.832;5.974;2022-08-30T08:04:40;95556.50;;;29.08;52.98
61674;BME280;47573;43.832;5.974;2022-08-30T08:09:42;95557.06;;;29.25;52.33
61674;BME280;47573;43.832;5.974;2022-08-30T08:14:42;95548.81;;;29.20;52.79
61674;BME280;47573;43.832;5.974;2022-08-30T08:19:43;95553.75;;;29.23;52.23
61674;BME280;47573;43.832;5.974;2022-08-30T08:24:44;95560.88;;;29.14;52.40
61674;BME280;47573;43.832;5.974;2022-08-30T08:29:45;95563.38;;;28.85;51.67
61674;BME280;47573;43.832;5.974;2022-08-30T08:34:45;95568.56;;;28.82;51.84
61674;BME280;47573;43.832;5.974;2022-08-30T08:39:47;95565.28;;;29.00;51.84
61674;BME280;47573;43.832;5.974;2022-08-30T08:44:54;95574.63;;;29.14;51.52
61674;BME280;47573;43.832;5.974;2022-08-30T08:50:00;95568.59;;;29.02;51.65
61674;BME280;47573;43.832;5.974;2022-08-30T08:55:07;95568.28;;;29.49;51.13
61674;BME280;47573;43.832;5.974;2022-08-30T09:00:11;95558.09;;;29.59;50.90
61674;BME280;47573;43.832;5.974;2022-08-30T09:05:16;95565.59;;;30.17;49.04
61674;BME280;47573;43.832;5.974;2022-08-30T09:10:19;95558.47;;;30.16;48.67
61674;BME280;47573;43.832;5.974;2022-08-30T09:15:23;95568.00;;;30.39;48.07
61674;BME280;47573;43.832;5.974;2022-08-30T09:20:30;95567.38;;;30.52;48.57
61674;BME280;47573;43.832;5.974;2022-08-30T09:25:33;95565.44;;;30.53;48.80
61674;BME280;47573;43.832;5.974;2022-08-30T09:30:37;95551.97;;;30.90;47.78
61674;BME280;47573;43.832;5.974;2022-08-30T09:35:43;95551.88;;;31.00;46.57
61674;BME280;47573;43.832;5.974;2022-08-30T09:40:47;95541.59;;;30.77;46.50
61674;BME280;47573;43.832;5.974;2022-08-30T09:46:05;95533.84;;;29.81;49.71
61674;BME280;47573;43.832;5.974;2022-08-30T09:51:29;95531.13;;;29.56;50.90
61674;BME280;47573;43.832;5.974;2022-08-30T09:56:39;95527.78;;;29.69;50.65
61674;BME280;47573;43.832;5.974;2022-08-30T10:01:45;95523.97;;;29.55;51.15
61674;BME280;47573;43.832;5.974;2022-08-30T10:06:50;95510.47;;;29.64;51.32
61674;BME280;47573;43.832;5.974;2022-08-30T10:11:57;95521.47;;;29.64;51.14
61674;BME280;47573;43.832;5.974;2022-08-30T10:17:06;95515.13;;;29.73;50.99
61674;BME280;47573;43.832;5.974;2022-08-30T10:22:14;95516.78;;;29.74;51.06
61674;BME280;47573;43.832;5.974;2022-08-30T10:27:22;95507.94;;;29.82;50.98
61674;BME280;47573;43.832;5.974;2022-08-30T10:32:27;95512.91;;;29.85;51.22
61674;BME280;47573;43.832;5.974;2022-08-30T10:37:31;95506.81;;;29.88;51.41
61674;BME280;47573;43.832;5.974;2022-08-30T10:42:37;95499.03;;;30.05;51.19
61674;BME280;47573;43.832;5.974;2022-08-30T10:47:43;95495.81;;;30.76;49.55
61674;BME280;47573;43.832;5.974;2022-08-30T10:52:52;95496.31;;;30.83;49.09
61674;BME280;47573;43.832;5.974;2022-08-30T10:57:57;95489.16;;;30.82;49.23
61674;BME280;47573;43.832;5.974;2022-08-30T11:13:48;95475.59;;;30.90;49.22
61674;BME280;47573;43.832;5.974;2022-08-30T11:18:52;95472.59;;;30.87;49.36
61674;BME280;47573;43.832;5.974;2022-08-30T11:24:03;95470.38;;;30.89;49.63
61674;BME280;47573;43.832;5.974;2022-08-30T11:29:06;95470.91;;;30.91;49.20
61674;BME280;47573;43.832;5.974;2022-08-30T11:34:08;95461.50;;;30.92;49.67
61674;BME280;47573;43.832;5.974;2022-08-30T11:39:10;95452.59;;;31.00;49.49
61674;BME280;47573;43.832;5.974;2022-08-30T11:44:29;95443.47;;;31.05;49.26
61674;BME280;47573;43.832;5.974;2022-08-30T11:49:41;95448.13;;;31.04;49.07
61674;BME280;47573;43.832;5.974;2022-08-30T11:54:58;95430.19;;;31.07;49.42
61674;BME280;47573;43.832;5.974;2022-08-30T12:00:08;95432.09;;;31.11;49.16
61674;BME280;47573;43.832;5.974;2022-08-30T12:10:44;95403.41;;;31.12;49.28
61674;BME280;47573;43.832;5.974;2022-08-30T12:15:56;95406.97;;;31.13;48.90
61674;BME280;47573;43.832;5.974;2022-08-30T12:21:03;95405.56;;;31.15;48.91
61674;BME280;47573;43.832;5.974;2022-08-30T12:26:17;95392.38;;;31.12;49.35
61674;BME280;47573;43.832;5.974;2022-08-30T12:31:20;95386.78;;;31.17;49.16
61674;BME280;47573;43.832;5.974;2022-08-30T12:36:33;95380.44;;;31.17;48.84
61674;BME280;47573;43.832;5.974;2022-08-30T12:41:34;95363.00;;;31.21;48.81
61674;BME280;47573;43.832;5.974;2022-08-30T12:46:37;95348.09;;;31.22;49.07
61674;BME280;47573;43.832;5.974;2022-08-30T12:51:39;95341.47;;;31.23;49.26
61674;BME280;47573;43.832;5.974;2022-08-30T12:56:49;95343.63;;;31.26;48.76
61674;BME280;47573;43.832;5.974;2022-08-30T13:01:51;95330.28;;;31.33;48.59
61674;BME280;47573;43.832;5.974;2022-08-30T13:06:54;95331.94;;;31.34;48.76
61674;BME280;47573;43.832;5.974;2022-08-30T13:11:55;95331.34;;;31.37;48.67
61674;BME280;47573;43.832;5.974;2022-08-30T13:17:10;95305.44;;;31.33;48.79
61674;BME280;47573;43.832;5.974;2022-08-30T13:22:25;95290.50;;;31.39;48.68
61674;BME280;47573;43.832;5.974;2022-08-30T13:27:27;95278.34;;;31.40;48.57
61674;BME280;47573;43.832;5.974;2022-08-30T13:32:29;95265.44;;;31.54;48.27
61674;BME280;47573;43.832;5.974;2022-08-30T13:37:30;95256.13;;;31.50;48.90
61674;BME280;47573;43.832;5.974;2022-08-30T13:42:31;95247.63;;;31.47;49.02
61674;BME280;47573;43.832;5.974;2022-08-30T13:47:33;95233.31;;;31.45;48.99
61674;BME280;47573;43.832;5.974;2022-08-30T13:52:34;95232.13;;;31.51;48.41
61674;BME280;47573;43.832;5.974;2022-08-30T13:57:34;95240.59;;;31.54;48.96
61674;BME280;47573;43.832;5.974;2022-08-30T14:02:36;95249.50;;;31.51;48.77
61674;BME280;47573;43.832;5.974;2022-08-30T14:07:36;95246.28;;;31.63;48.69
61674;BME280;47573;43.832;5.974;2022-08-30T14:12:37;95248.31;;;31.57;49.10
61674;BME280;47573;43.832;5.974;2022-08-30T14:17:39;95260.38;;;31.61;48.89
61674;BME280;47573;43.832;5.974;2022-08-30T14:22:39;95310.06;;;31.61;48.91
61674;BME280;47573;43.832;5.974;2022-08-30T14:27:40;95302.84;;;31.65;48.99
61674;BME280;47573;43.832;5.974;2022-08-30T14:32:42;95303.94;;;31.64;48.45
61674;BME280;47573;43.832;5.974;2022-08-30T14:37:42;95291.34;;;31.16;49.90
61674;BME280;47573;43.832;5.974;2022-08-30T14:42:43;95297.09;;;30.96;49.67
61674;BME280;47573;43.832;5.974;2022-08-30T14:47:45;95293.38;;;30.87;50.22
61674;BME280;47573;43.832;5.974;2022-08-30T14:52:46;95325.84;;;30.90;50.12
61674;BME280;47573;43.832;5.974;2022-08-30T14:57:46;95327.56;;;30.86;50.12
61674;BME280;47573;43.832;5.974;2022-08-30T15:02:48;95340.88;;;30.79;49.90
61674;BME280;47573;43.832;5.974;2022-08-30T15:07:49;95333.16;;;30.76;49.87
61674;BME280;47573;43.832;5.974;2022-08-30T15:12:50;95306.16;;;30.73;50.05
61674;BME280;47573;43.832;5.974;2022-08-30T15:17:52;95321.50;;;30.84;49.65
61674;BME280;47573;43.832;5.974;2022-08-30T15:22:53;95321.50;;;30.84;49.37
61674;BME280;47573;43.832;5.974;2022-08-30T15:27:53;95304.59;;;30.04;47.84
61674;BME280;47573;43.832;5.974;2022-08-30T15:32:55;95302.09;;;29.74;47.22
61674;BME280;47573;43.832;5.974;2022-08-30T15:37:56;95272.97;;;29.63;46.62
61674;BME280;47573;43.832;5.974;2022-08-30T15:42:56;95259.00;;;29.55;45.73
61674;BME280;47573;43.832;5.974;2022-08-30T15:47:59;95241.28;;;30.04;43.96
61674;BME280;47573;43.832;5.974;2022-08-30T15:53:00;95261.94;;;30.36;43.51
61674;BME280;47573;43.832;5.974;2022-08-30T15:58:01;95259.25;;;30.26;43.38
61674;BME280;47573;43.832;5.974;2022-08-30T16:03:03;95262.59;;;30.23;43.26
61674;BME280;47573;43.832;5.974;2022-08-30T16:08:03;95239.75;;;29.93;44.62
61674;BME280;47573;43.832;5.974;2022-08-30T16:13:04;95238.09;;;29.92;44.97
61674;BME280;47573;43.832;5.974;2022-08-30T16:18:06;95231.72;;;29.97;44.74
61674;BME280;47573;43.832;5.974;2022-08-30T16:23:06;95228.13;;;29.96;44.95
61674;BME280;47573;43.832;5.974;2022-08-30T16:28:07;95231.81;;;30.15;45.43
61674;BME280;47573;43.832;5.974;2022-08-30T16:33:09;95230.34;;;29.94;45.97
61674;BME280;47573;43.832;5.974;2022-08-30T16:38:09;95230.44;;;29.84;46.56
61674;BME280;47573;43.832;5.974;2022-08-30T16:43:10;95250.25;;;29.86;46.52
61674;BME280;47573;43.832;5.974;2022-08-30T16:48:13;95249.25;;;29.72;47.62
61674;BME280;47573;43.832;5.974;2022-08-30T16:53:14;95268.75;;;29.81;47.42
61674;BME280;47573;43.832;5.974;2022-08-30T16:58:14;95274.72;;;29.88;47.24
61674;BME280;47573;43.832;5.974;2022-08-30T17:03:17;95284.84;;;29.97;47.70
61674;BME280;47573;43.832;5.974;2022-08-30T17:08:17;95267.34;;;29.83;48.80
61674;BME280;47573;43.832;5.974;2022-08-30T17:13:18;95265.16;;;29.85;48.70
61674;BME280;47573;43.832;5.974;2022-08-30T17:18:20;95259.13;;;29.78;50.27
61674;BME280;47573;43.832;5.974;2022-08-30T17:23:21;95241.44;;;29.89;50.17
61674;BME280;47573;43.832;5.974;2022-08-30T17:28:22;95250.47;;;29.56;50.83
61674;BME280;47573;43.832;5.974;2022-08-30T17:33:24;95255.56;;;29.78;49.90
61674;BME280;47573;43.832;5.974;2022-08-30T17:38:25;95246.25;;;29.69;49.92
61674;BME280;47573;43.832;5.974;2022-08-30T17:43:25;95247.41;;;29.63;50.44
61674;BME280;47573;43.832;5.974;2022-08-30T17:48:27;95238.06;;;29.59;51.30
61674;BME280;47573;43.832;5.974;2022-08-30T17:53:28;95263.69;;;29.54;51.93
61674;BME280;47573;43.832;5.974;2022-08-30T17:58:29;95271.47;;;29.42;52.61
61674;BME280;47573;43.832;5.974;2022-08-30T18:03:31;95280.25;;;29.44;53.39
61674;BME280;47573;43.832;5.974;2022-08-30T18:08:31;95268.63;;;29.08;54.42
61674;BME280;47573;43.832;5.974;2022-08-30T18:13:32;95280.91;;;29.26;53.84
61674;BME280;47573;43.832;5.974;2022-08-30T18:18:34;95299.16;;;29.02;54.12
61674;BME280;47573;43.832;5.974;2022-08-30T18:23:35;95281.97;;;28.71;55.07
61674;BME280;47573;43.832;5.974;2022-08-30T18:28:35;95278.34;;;28.86;54.33
61674;BME280;47573;43.832;5.974;2022-08-30T18:33:37;95280.06;;;28.61;55.62
61674;BME280;47573;43.832;5.974;2022-08-30T18:38:38;95305.88;;;28.66;55.58
61674;BME280;47573;43.832;5.974;2022-08-30T18:43:39;95325.97;;;28.56;56.08
61674;BME280;47573;43.832;5.974;2022-08-30T18:48:42;95341.06;;;28.63;56.43
61674;BME280;47573;43.832;5.974;2022-08-30T18:53:43;95329.25;;;28.43;57.58
61674;BME280;47573;43.832;5.974;2022-08-30T18:58:45;95352.63;;;28.50;57.46
61674;BME280;47573;43.832;5.974;2022-08-30T19:03:47;95355.91;;;28.32;58.09
61674;BME280;47573;43.832;5.974;2022-08-30T19:08:48;95357.03;;;28.21;58.71
61674;BME280;47573;43.832;5.974;2022-08-30T19:13:48;95333.94;;;28.22;58.61
61674;BME280;47573;43.832;5.974;2022-08-30T19:18:50;95354.25;;;28.26;58.36
61674;BME280;47573;43.832;5.974;2022-08-30T19:23:50;95381.16;;;28.49;57.38
61674;BME280;47573;43.832;5.974;2022-08-30T19:28:51;95399.31;;;28.45;57.97
61674;BME280;47573;43.832;5.974;2022-08-30T19:33:53;95408.06;;;28.17;58.74
61674;BME280;47573;43.832;5.974;2022-08-30T19:38:53;95393.81;;;28.25;58.06
61674;BME280;47573;43.832;5.974;2022-08-30T19:43:54;95394.91;;;28.24;57.82
61674;BME280;47573;43.832;5.974;2022-08-30T19:48:56;95397.63;;;28.09;58.41
61674;BME280;47573;43.832;5.974;2022-08-30T19:53:56;95399.25;;;27.95;58.48
61674;BME280;47573;43.832;5.974;2022-08-30T19:58:57;95412.38;;;27.73;59.11
61674;BME280;47573;43.832;5.974;2022-08-30T20:03:59;95407.44;;;27.70;58.87
61674;BME280;47573;43.832;5.974;2022-08-30T20:09:00;95428.25;;;27.56;59.37
61674;BME280;47573;43.832;5.974;2022-08-30T20:14:00;95432.19;;;27.95;57.74
61674;BME280;47573;43.832;5.974;2022-08-30T20:19:03;95447.09;;;28.24;55.82
61674;BME280;47573;43.832;5.974;2022-08-30T20:24:04;95411.41;;;28.39;52.73
61674;BME280;47573;43.832;5.974;2022-08-30T20:29:05;95449.84;;;28.19;53.25
61674;BME280;47573;43.832;5.974;2022-08-30T20:34:07;95413.88;;;28.11;54.59
61674;BME280;47573;43.832;5.974;2022-08-30T20:39:08;95430.06;;;28.88;52.92
61674;BME280;47573;43.832;5.974;2022-08-30T20:44:08;95413.50;;;29.03;52.77
61674;BME280;47573;43.832;5.974;2022-08-30T20:49:11;95411.06;;;29.06;53.00
61674;BME280;47573;43.832;5.974;2022-08-30T20:54:11;95414.13;;;28.80;52.65
61674;BME280;47573;43.832;5.974;2022-08-30T20:59:12;95426.81;;;26.91;58.68
61674;BME280;47573;43.832;5.974;2022-08-30T21:04:14;95406.34;;;26.62;58.92
61674;BME280;47573;43.832;5.974;2022-08-30T21:09:15;95396.50;;;26.66;58.51
61674;BME280;47573;43.832;5.974;2022-08-30T21:14:16;95397.31;;;27.14;56.96
61674;BME280;47573;43.832;5.974;2022-08-30T21:19:17;95365.81;;;26.64;57.39
61674;BME280;47573;43.832;5.974;2022-08-30T21:24:18;95370.84;;;26.77;55.87
61674;BME280;47573;43.832;5.974;2022-08-30T21:29:18;95379.53;;;26.69;56.28
61674;BME280;47573;43.832;5.974;2022-08-30T21:34:20;95378.28;;;26.45;57.63
61674;BME280;47573;43.832;5.974;2022-08-30T21:39:22;95373.22;;;26.27;58.38
61674;BME280;47573;43.832;5.974;2022-08-30T21:44:25;95363.53;;;26.09;58.61
61674;BME280;47573;43.832;5.974;2022-08-30T21:49:29;95356.69;;;26.12;58.02
61674;BME280;47573;43.832;5.974;2022-08-30T21:54:30;95345.13;;;26.05;57.42
61674;BME280;47573;43.832;5.974;2022-08-30T21:59:31;95334.03;;;25.90;57.63
61674;BME280;47573;43.832;5.974;2022-08-30T22:04:32;95341.75;;;25.98;57.61
61674;BME280;47573;43.832;5.974;2022-08-30T22:09:34;95335.16;;;25.94;57.57
61674;BME280;47573;43.832;5.974;2022-08-30T22:14:34;95334.91;;;25.95;57.22
61674;BME280;47573;43.832;5.974;2022-08-30T22:19:36;95334.59;;;25.92;56.42
61674;BME280;47573;43.832;5.974;2022-08-30T22:24:37;95339.56;;;25.95;56.73
61674;BME280;47573;43.832;5.974;2022-08-30T22:29:37;95353.03;;;25.75;57.44
61674;BME280;47573;43.832;5.974;2022-08-30T22:34:39;95342.69;;;25.50;58.08
61674;BME280;47573;43.832;5.974;2022-08-30T22:39:40;95328.03;;;25.34;58.80
61674;BME280;47573;43.832;5.974;2022-08-30T22:44:41;95333.91;;;25.00;59.86
61674;BME280;47573;43.832;5.974;2022-08-30T22:49:43;95343.38;;;24.92;60.79
61674;BME280;47573;43.832;5.974;2022-08-30T22:54:44;95322.22;;;25.04;59.65
61674;BME280;47573;43.832;5.974;2022-08-30T22:59:44;95331.19;;;25.26;58.65
61674;BME280;47573;43.832;5.974;2022-08-30T23:04:46;95345.66;;;25.22;58.56
61674;BME280;47573;43.832;5.974;2022-08-30T23:09:47;95343.47;;;24.97;59.05
61674;BME280;47573;43.832;5.974;2022-08-30T23:14:47;95347.25;;;24.96;59.34
61674;BME280;47573;43.832;5.974;2022-08-30T23:19:49;95340.09;;;25.12;58.46
61674;BME280;47573;43.832;5.974;2022-08-30T23:24:49;95339.31;;;26.01;56.81
61674;BME280;47573;43.832;5.974;2022-08-30T23:29:50;95348.47;;;26.90;54.51
61674;BME280;47573;43.832;5.974;2022-08-30T23:34:52;95337.06;;;27.19;53.80
61674;BME280;47573;43.832;5.974;2022-08-30T23:39:52;95346.47;;;27.43;53.19
61674;BME280;47573;43.832;5.974;2022-08-30T23:44:53;95344.34;;;27.65;52.75
61674;BME280;47573;43.832;5.974;2022-08-30T23:49:55;95339.69;;;27.80;52.29
61674;BME280;47573;43.832;5.974;2022-08-30T23:54:55;95335.56;;;27.93;52.23
61674;BME280;47573;43.832;5.974;2022-08-30T23:59:56;95333.94;;;28.07;52.11
